createdAt,value
2022-11-05T00:01:45.468Z,8.49
2022-11-05T00:04:31.203Z,8.52
2022-11-05T00:07:18.589Z,8.51
2022-11-05T00:09:45.957Z,8.55
2022-11-05T00:12:32.445Z,8.53
2022-11-05T00:15:17.233Z,8.56
2022-11-05T00:17:43.535Z,8.58
2022-11-05T00:20:13.584Z,8.58
2022-11-05T00:22:58.377Z,8.52
2022-11-05T00:25:24.542Z,8.52
2022-11-05T00:27:53.053Z,8.56
2022-11-05T00:30:25.938Z,8.59
2022-11-05T00:32:53.152Z,8.59
2022-11-05T00:35:21.536Z,8.60
2022-11-05T00:37:50.328Z,8.59
2022-11-05T00:40:16.948Z,8.54
2022-11-05T00:43:02.036Z,8.60
2022-11-05T00:45:29.808Z,8.61
2022-11-05T00:48:14.158Z,8.56
2022-11-05T00:50:40.481Z,8.59
2022-11-05T00:53:07.819Z,8.62
2022-11-05T00:55:39.629Z,8.64
2022-11-05T00:58:08.572Z,8.65
2022-11-05T01:00:37.564Z,8.61
2022-11-05T01:03:10.086Z,8.62
2022-11-05T01:05:48.006Z,8.56
2022-11-05T01:08:16.415Z,8.53
2022-11-05T01:10:48.238Z,8.49
2022-11-05T01:13:17.647Z,8.46
2022-11-05T01:15:43.971Z,8.42
2022-11-05T01:18:10.432Z,8.38
2022-11-05T01:20:36.562Z,8.34
2022-11-05T01:23:02.764Z,8.29
2022-11-05T01:25:28.921Z,8.30
2022-11-05T01:27:55.204Z,8.32
2022-11-05T01:30:21.469Z,8.30
2022-11-05T01:32:47.575Z,8.27
2022-11-05T01:35:15.960Z,8.32
2022-11-05T01:37:42.458Z,8.29
2022-11-05T01:40:12.233Z,8.33
2022-11-05T01:42:38.363Z,8.34
2022-11-05T01:45:14.106Z,8.34
2022-11-05T01:47:48.436Z,8.36
2022-11-05T01:50:26.765Z,8.35
2022-11-05T01:52:59.349Z,8.33
2022-11-05T01:55:28.243Z,8.27
2022-11-05T01:57:58.160Z,8.28
2022-11-05T02:00:24.809Z,8.27
2022-11-05T02:02:51.025Z,8.28
2022-11-05T02:05:17.636Z,8.24
2022-11-05T02:07:45.491Z,8.26
2022-11-05T02:10:14.232Z,8.24
2022-11-05T02:12:43.613Z,8.23
2022-11-05T02:15:12.470Z,8.24
2022-11-05T02:17:51.423Z,8.21
2022-11-05T02:20:35.387Z,8.19
2022-11-05T02:23:39.006Z,8.18
2022-11-05T02:26:26.674Z,8.18
2022-11-05T02:29:17.808Z,8.16
2022-11-05T02:31:57.810Z,8.16
2022-11-05T02:34:30.933Z,8.17
2022-11-05T02:37:10.192Z,8.16
2022-11-05T02:39:59.577Z,8.15
2022-11-05T02:43:05.469Z,8.14
2022-11-05T02:45:46.304Z,8.12
2022-11-05T02:48:38.925Z,8.09
2022-11-05T02:51:14.431Z,8.10
2022-11-05T02:54:18.964Z,8.08
2022-11-05T02:56:48.243Z,8.09
2022-11-05T02:59:14.378Z,8.03
2022-11-05T03:01:43.232Z,8.01
2022-11-05T03:04:11.927Z,8.03
2022-11-05T03:06:41.069Z,8.06
2022-11-05T03:09:24.882Z,8.04
2022-11-05T03:12:26.741Z,8.04
2022-11-05T03:14:57.988Z,8.06
2022-11-05T03:17:55.490Z,8.03
2022-11-05T03:20:40.336Z,7.97
2022-11-05T03:23:23.390Z,7.98
2022-11-05T03:26:01.954Z,7.98
2022-11-05T03:28:32.413Z,7.96
2022-11-05T03:30:59.338Z,7.90
2022-11-05T03:33:29.590Z,7.89
2022-11-05T03:36:00.477Z,7.85
2022-11-05T03:38:34.122Z,7.82
2022-11-05T03:41:07.460Z,7.76
2022-11-05T03:43:42.806Z,7.72
2022-11-05T03:46:27.371Z,7.66
2022-11-05T03:48:56.887Z,7.61
2022-11-05T03:51:36.409Z,7.58
2022-11-05T03:54:04.326Z,7.56
2022-11-05T03:56:36.308Z,7.52
2022-11-05T03:59:04.375Z,7.47
2022-11-05T04:01:31.446Z,7.42
2022-11-05T04:03:57.680Z,7.38
2022-11-05T04:06:42.411Z,7.31
2022-11-05T04:09:27.999Z,7.22
2022-11-05T04:12:13.022Z,7.12
2022-11-05T04:14:39.716Z,7.15
2022-11-05T04:17:11.548Z,7.06
2022-11-05T04:19:58.320Z,7.00
2022-11-05T04:22:44.415Z,6.99
2022-11-05T04:25:11.549Z,6.90
2022-11-05T04:27:37.674Z,6.86
2022-11-05T04:30:20.068Z,6.89
2022-11-05T04:33:00.832Z,6.90
2022-11-05T04:35:29.156Z,6.88
2022-11-05T04:37:55.329Z,6.82
2022-11-05T04:40:21.854Z,6.80
2022-11-05T04:42:47.983Z,6.74
2022-11-05T04:45:14.111Z,6.73
2022-11-05T04:47:40.228Z,6.64
2022-11-05T04:50:06.433Z,6.60
2022-11-05T04:52:32.543Z,6.60
2022-11-05T04:54:58.671Z,6.55
2022-11-05T04:57:24.774Z,6.57
2022-11-05T04:59:52.082Z,6.55
2022-11-05T05:02:18.255Z,6.48
2022-11-05T05:04:44.980Z,6.47
2022-11-05T05:07:11.098Z,6.52
2022-11-05T05:09:37.211Z,6.46
2022-11-05T05:12:03.420Z,6.45
2022-11-05T05:14:29.533Z,6.46
2022-11-05T05:16:55.651Z,6.40
2022-11-05T05:19:21.783Z,6.41
2022-11-05T05:21:47.888Z,6.44
2022-11-05T05:24:21.182Z,6.46
2022-11-05T05:26:51.521Z,6.42
2022-11-05T05:29:18.163Z,6.38
2022-11-05T05:31:44.985Z,6.40
2022-11-05T05:34:12.956Z,6.37
2022-11-05T05:36:39.092Z,6.42
2022-11-05T05:39:11.063Z,6.44
2022-11-05T05:41:37.322Z,6.43
2022-11-05T05:44:05.088Z,6.44
2022-11-05T05:46:31.199Z,6.44
2022-11-05T05:48:57.359Z,6.43
2022-11-05T05:51:23.452Z,6.45
2022-11-05T05:53:50.105Z,6.43
2022-11-05T05:56:19.334Z,6.43
2022-11-05T05:58:45.643Z,6.43
2022-11-05T06:01:18.911Z,6.42
2022-11-05T06:03:45.649Z,6.42
2022-11-05T06:06:13.494Z,6.41
2022-11-05T06:08:40.028Z,6.43
2022-11-05T06:11:07.124Z,6.44
2022-11-05T06:13:33.940Z,6.47
2022-11-05T06:16:05.144Z,6.49
2022-11-05T06:18:31.903Z,6.45
2022-11-05T06:21:03.006Z,6.44
2022-11-05T06:23:33.608Z,6.40
2022-11-05T06:26:05.420Z,6.40
2022-11-05T06:28:31.748Z,6.38
2022-11-05T06:30:58.099Z,6.39
2022-11-05T06:33:24.399Z,6.39
2022-11-05T06:35:50.584Z,6.44
2022-11-05T06:38:16.737Z,6.44
2022-11-05T06:40:42.855Z,6.47
2022-11-05T06:43:09.322Z,6.44
2022-11-05T06:45:35.621Z,6.44
2022-11-05T06:48:01.973Z,6.50
2022-11-05T06:50:28.597Z,6.53
2022-11-05T06:53:02.812Z,6.54
2022-11-05T06:55:30.523Z,6.58
2022-11-05T06:57:57.328Z,6.57
2022-11-05T07:00:30.945Z,6.61
2022-11-05T07:03:04.405Z,6.60
2022-11-05T07:05:31.451Z,6.61
2022-11-05T07:07:57.569Z,6.61
2022-11-05T07:10:23.759Z,6.65
2022-11-05T07:12:49.880Z,6.68
2022-11-05T07:15:16.038Z,6.69
2022-11-05T07:17:42.172Z,6.71
2022-11-05T07:20:09.431Z,6.72
2022-11-05T07:22:35.896Z,6.69
2022-11-05T07:25:02.198Z,6.75
2022-11-05T07:27:28.327Z,6.75
2022-11-05T07:29:54.436Z,6.72
2022-11-05T07:32:20.561Z,6.76
2022-11-05T07:34:46.724Z,6.75
2022-11-05T07:37:12.921Z,6.81
2022-11-05T07:39:39.032Z,6.77
2022-11-05T07:42:05.152Z,6.81
2022-11-05T07:44:33.181Z,6.82
2022-11-05T07:46:59.316Z,6.86
2022-11-05T07:49:26.126Z,6.85
2022-11-05T07:51:52.249Z,6.78
2022-11-05T07:54:18.347Z,6.76
2022-11-05T07:56:47.062Z,6.80
2022-11-05T07:59:13.176Z,6.78
2022-11-05T08:01:39.502Z,6.75
2022-11-05T08:04:05.722Z,6.71
2022-11-05T08:06:31.900Z,6.70
2022-11-05T08:08:58.032Z,6.72
2022-11-05T08:11:24.135Z,6.72
2022-11-05T08:13:50.269Z,6.74
2022-11-05T08:16:16.510Z,6.80
2022-11-05T08:18:42.629Z,6.78
2022-11-05T08:21:09.599Z,6.80
2022-11-05T08:23:35.740Z,6.80
2022-11-05T08:26:03.842Z,6.85
2022-11-05T08:28:29.949Z,6.89
2022-11-05T08:30:57.024Z,6.94
2022-11-05T08:33:25.049Z,6.93
2022-11-05T08:35:51.148Z,6.96
2022-11-05T08:38:19.076Z,7.01
2022-11-05T08:40:52.809Z,7.06
2022-11-05T08:43:18.933Z,7.09
2022-11-05T08:45:45.150Z,7.20
2022-11-05T08:48:16.530Z,7.25
2022-11-05T08:50:43.961Z,7.30
2022-11-05T08:53:10.967Z,7.40
2022-11-05T08:55:38.513Z,7.55
2022-11-05T08:58:12.599Z,7.64
2022-11-05T09:00:40.075Z,7.71
2022-11-05T09:03:08.182Z,7.76
2022-11-05T09:05:39.261Z,7.95
2022-11-05T09:08:10.108Z,7.91
2022-11-05T09:10:37.162Z,7.81
2022-11-05T09:13:04.481Z,7.83
2022-11-05T09:15:31.441Z,7.95
2022-11-05T09:17:57.780Z,8.07
2022-11-05T09:20:24.161Z,8.19
2022-11-05T09:22:51.237Z,8.27
2022-11-05T09:25:17.590Z,8.40
2022-11-05T09:27:44.279Z,8.58
2022-11-05T09:30:11.726Z,8.73
2022-11-05T09:32:38.191Z,8.62
2022-11-05T09:35:05.302Z,8.61
2022-11-05T09:37:31.491Z,8.47
2022-11-05T09:39:57.650Z,8.34
2022-11-05T09:42:31.698Z,8.31
2022-11-05T09:45:05.161Z,8.14
2022-11-05T09:47:36.259Z,8.10
2022-11-05T09:50:09.124Z,7.99
2022-11-05T09:52:35.309Z,7.97
2022-11-05T09:55:04.520Z,7.98
2022-11-05T09:57:44.056Z,7.96
2022-11-05T10:00:18.248Z,8.05
2022-11-05T10:02:49.831Z,8.10
2022-11-05T10:05:17.060Z,8.12
2022-11-05T10:07:47.627Z,8.14
2022-11-05T10:10:37.798Z,8.15
2022-11-05T10:13:29.722Z,8.18
2022-11-05T10:16:07.305Z,8.23
2022-11-05T10:18:37.496Z,8.23
2022-11-05T10:21:04.482Z,8.35
2022-11-05T10:23:30.618Z,8.44
2022-11-05T10:26:07.781Z,8.46
2022-11-05T10:28:35.289Z,8.55
2022-11-05T10:31:08.273Z,8.63
2022-11-05T10:33:41.264Z,8.68
2022-11-05T10:36:15.273Z,8.72
2022-11-05T10:38:41.399Z,8.74
2022-11-05T10:41:26.275Z,8.79
2022-11-05T10:44:02.327Z,8.81
2022-11-05T10:47:13.028Z,8.85
2022-11-05T10:50:00.259Z,8.93
2022-11-05T10:52:33.063Z,8.92
2022-11-05T10:55:02.408Z,8.98
2022-11-05T10:57:38.005Z,9.11
2022-11-05T11:00:16.160Z,9.16
2022-11-05T11:02:47.171Z,9.27
2022-11-05T11:05:29.838Z,9.38
2022-11-05T11:08:00.963Z,9.39
2022-11-05T11:10:29.111Z,9.47
2022-11-05T11:12:56.957Z,9.51
2022-11-05T11:15:29.686Z,9.62
2022-11-05T11:17:56.643Z,9.70
2022-11-05T11:20:31.561Z,9.84
2022-11-05T11:23:15.855Z,9.86
2022-11-05T11:25:50.857Z,10.00
2022-11-05T11:28:31.054Z,9.97
2022-11-05T11:31:11.841Z,10.12
2022-11-05T11:33:40.452Z,10.19
2022-11-05T11:36:09.100Z,10.17
2022-11-05T11:38:37.115Z,10.13
2022-11-05T11:41:27.129Z,10.13
2022-11-05T11:44:02.002Z,10.16
2022-11-05T11:46:32.539Z,10.19
2022-11-05T11:48:59.069Z,10.21
2022-11-05T11:51:49.868Z,10.23
2022-11-05T11:54:21.322Z,10.26
2022-11-05T11:56:48.778Z,10.32
2022-11-05T12:00:06.628Z,10.33
2022-11-05T12:02:27.288Z,10.32
2022-11-05T12:05:14.567Z,10.33
2022-11-05T12:07:51.503Z,10.31
2022-11-05T12:11:03.231Z,10.33
2022-11-05T12:14:15.333Z,10.45
2022-11-05T12:17:08.724Z,10.48
2022-11-05T12:20:10.123Z,10.49
2022-11-05T12:23:07.266Z,10.50
2022-11-05T12:26:00.796Z,10.56
2022-11-05T12:29:04.488Z,10.69
2022-11-05T12:31:43.079Z,10.77
2022-11-05T12:34:20.980Z,10.87
2022-11-05T12:37:08.046Z,10.95
2022-11-05T12:40:11.195Z,10.87
2022-11-05T12:42:58.732Z,10.68
2022-11-05T12:45:45.108Z,10.64
2022-11-05T12:48:34.193Z,10.62
2022-11-05T12:51:37.862Z,10.55
2022-11-05T12:54:18.105Z,10.45
2022-11-05T12:57:01.596Z,10.40
2022-11-05T12:59:37.810Z,10.40
2022-11-05T13:02:22.802Z,10.40
2022-11-05T13:05:21.703Z,10.33
2022-11-05T13:08:03.362Z,10.42
2022-11-05T13:10:43.920Z,10.43
2022-11-05T13:13:33.830Z,10.42
2022-11-05T13:16:24.721Z,10.37
2022-11-05T13:18:54.833Z,10.37
2022-11-05T13:21:25.231Z,10.37
2022-11-05T13:24:12.660Z,10.39
2022-11-05T13:27:01.693Z,10.41
2022-11-05T13:29:56.051Z,10.34
2022-11-05T13:32:31.327Z,10.36
2022-11-05T13:34:59.406Z,10.37
2022-11-05T13:37:55.110Z,10.39
2022-11-05T13:40:28.232Z,10.37
2022-11-05T13:43:19.083Z,10.42
2022-11-05T13:46:30.107Z,10.50
2022-11-05T13:49:16.601Z,10.56
2022-11-05T13:51:49.534Z,10.56
2022-11-05T13:54:37.109Z,10.55
2022-11-05T13:57:26.456Z,10.49
2022-11-05T14:00:03.921Z,10.44
2022-11-05T14:02:52.618Z,10.40
2022-11-05T14:05:27.600Z,10.36
2022-11-05T14:07:54.544Z,10.41
2022-11-05T14:10:35.401Z,10.37
2022-11-05T14:13:19.139Z,10.45
2022-11-05T14:16:04.499Z,10.59
2022-11-05T14:19:14.920Z,10.62
2022-11-05T14:21:52.492Z,10.62
2022-11-05T14:24:21.201Z,10.54
2022-11-05T14:27:02.384Z,10.48
2022-11-05T14:29:43.560Z,10.50
2022-11-05T14:32:18.951Z,10.39
2022-11-05T14:34:47.963Z,10.34
2022-11-05T14:37:22.301Z,10.22
2022-11-05T14:39:48.760Z,10.11
2022-11-05T14:42:14.828Z,10.06
2022-11-05T14:45:02.081Z,10.02
2022-11-05T14:47:33.506Z,9.88
2022-11-05T14:50:06.944Z,9.67
2022-11-05T14:52:33.443Z,9.58
2022-11-05T14:54:59.730Z,9.46
2022-11-05T14:57:51.981Z,9.32
2022-11-05T15:00:31.277Z,9.17
2022-11-05T15:02:58.405Z,9.07
2022-11-05T15:06:20.151Z,8.91
2022-11-05T15:08:49.007Z,8.78
2022-11-05T15:11:18.224Z,8.61
2022-11-05T15:13:53.289Z,8.52
2022-11-05T15:16:24.921Z,8.37
2022-11-05T15:18:52.597Z,8.27
2022-11-05T15:21:20.631Z,8.16
2022-11-05T15:23:48.857Z,8.09
2022-11-05T15:26:23.567Z,7.99
2022-11-05T15:28:51.810Z,7.90
2022-11-05T15:31:24.424Z,7.81
2022-11-05T15:33:50.537Z,7.68
2022-11-05T15:36:29.393Z,7.56
2022-11-05T15:39:28.058Z,7.40
2022-11-05T15:41:42.943Z,7.23
2022-11-05T15:44:24.030Z,7.10
2022-11-05T15:47:22.786Z,6.92
2022-11-05T15:49:53.389Z,6.80
2022-11-05T15:52:22.653Z,6.69
2022-11-05T15:55:17.325Z,6.58
2022-11-05T15:57:59.330Z,6.49
2022-11-05T16:00:29.228Z,6.37
2022-11-05T16:03:18.227Z,6.26
2022-11-05T16:05:47.615Z,6.14
2022-11-05T16:08:20.265Z,6.06
2022-11-05T16:10:49.838Z,5.96
2022-11-05T16:13:36.765Z,5.86
2022-11-05T16:48:20.996Z,4.96
2022-11-05T16:50:47.174Z,4.89
2022-11-05T16:53:13.610Z,4.83
2022-11-05T16:55:42.608Z,4.77
2022-11-05T16:58:24.269Z,4.74
2022-11-05T17:00:52.575Z,4.71
2022-11-05T17:03:18.892Z,4.68
2022-11-05T17:05:45.158Z,4.64
2022-11-05T17:08:11.677Z,4.60
2022-11-05T17:10:38.058Z,4.57
2022-11-05T17:13:04.179Z,4.52
2022-11-05T17:15:35.600Z,4.48
2022-11-05T17:18:03.385Z,4.43
2022-11-05T17:20:36.745Z,4.35
2022-11-05T17:23:06.450Z,4.30
2022-11-05T17:25:32.772Z,4.25
2022-11-05T17:27:59.069Z,4.21
2022-11-05T17:30:25.455Z,4.19
2022-11-05T17:32:51.871Z,4.17
2022-11-05T17:35:18.465Z,4.10
2022-11-05T17:37:44.589Z,4.08
2022-11-05T17:40:17.892Z,4.04
2022-11-05T17:42:44.325Z,3.99
2022-11-05T17:45:12.008Z,3.95
2022-11-05T17:47:38.577Z,3.93
2022-11-05T17:50:05.817Z,3.90
2022-11-05T17:52:31.990Z,3.85
2022-11-05T17:54:58.257Z,3.82
2022-11-05T17:57:24.387Z,3.76
2022-11-05T17:59:50.510Z,3.72
2022-11-05T18:02:16.701Z,3.69
2022-11-05T18:04:44.147Z,3.70
2022-11-05T18:07:10.610Z,3.67
2022-11-05T18:09:37.686Z,3.67
2022-11-05T18:12:04.468Z,3.64
2022-11-05T18:14:30.578Z,3.65
2022-11-05T18:17:00.259Z,3.63
2022-11-05T18:19:27.778Z,3.65
2022-11-05T18:21:55.320Z,3.69
2022-11-05T18:24:22.620Z,3.70
2022-11-05T18:26:49.704Z,3.72
2022-11-05T18:29:15.842Z,3.74
2022-11-05T18:31:41.985Z,3.77
2022-11-05T18:34:10.440Z,3.79
2022-11-05T18:36:36.645Z,3.81
2022-11-05T18:39:04.467Z,3.81
2022-11-05T18:41:31.486Z,3.80
2022-11-05T18:44:02.063Z,3.77
2022-11-05T18:46:56.502Z,3.73
2022-11-05T18:49:15.866Z,3.71
2022-11-05T18:51:42.218Z,3.65
2022-11-05T18:54:08.949Z,3.61
2022-11-05T18:56:35.815Z,3.55
2022-11-05T18:59:22.367Z,3.53
2022-11-05T19:01:48.639Z,3.49
2022-11-05T19:04:14.901Z,3.45
2022-11-05T19:06:41.412Z,3.42
2022-11-05T19:09:10.023Z,3.40
2022-11-05T19:11:36.172Z,3.35
2022-11-05T19:14:02.451Z,3.31
2022-11-05T19:16:30.222Z,3.27
2022-11-05T19:19:01.791Z,3.22
2022-11-05T19:21:28.473Z,3.16
2022-11-05T19:23:57.347Z,3.13
2022-11-05T19:26:28.667Z,3.08
2022-11-05T19:28:57.500Z,3.06
2022-11-05T19:31:23.784Z,3.05
2022-11-05T19:33:51.375Z,3.01
2022-11-05T19:36:20.709Z,2.99
2022-11-05T19:38:49.595Z,2.98
2022-11-05T19:41:18.420Z,2.94
2022-11-05T19:43:45.116Z,2.93
2022-11-05T19:46:16.040Z,2.89
2022-11-05T19:48:43.103Z,2.85
2022-11-05T19:51:26.750Z,2.84
2022-11-05T19:53:53.441Z,2.80
2022-11-05T19:56:25.250Z,2.74
2022-11-05T19:58:53.121Z,2.70
2022-11-05T20:01:20.755Z,2.68
2022-11-05T20:03:47.757Z,2.68
2022-11-05T20:06:17.283Z,2.66
2022-11-05T20:09:07.041Z,2.64
2022-11-05T20:11:30.962Z,2.61
2022-11-05T20:13:57.547Z,2.59
2022-11-05T20:16:29.277Z,2.54
2022-11-05T20:18:57.308Z,2.53
2022-11-05T20:21:23.447Z,2.47
2022-11-05T20:23:49.639Z,2.43
2022-11-05T20:26:16.320Z,2.42
2022-11-05T20:28:43.901Z,2.41
2022-11-05T20:31:12.920Z,2.38
2022-11-05T20:33:40.822Z,2.35
2022-11-05T20:36:09.358Z,2.33
2022-11-05T20:38:35.552Z,2.31
2022-11-05T20:41:09.537Z,2.29
2022-11-05T20:43:36.558Z,2.27
2022-11-05T20:46:03.714Z,2.24
2022-11-05T20:48:34.630Z,2.24
2022-11-05T20:51:09.171Z,2.22
2022-11-05T20:53:36.453Z,2.21
2022-11-05T20:56:07.624Z,2.17
2022-11-05T20:58:34.134Z,2.13
2022-11-05T21:01:00.346Z,2.08
2022-11-05T21:03:27.308Z,2.04
2022-11-05T21:05:56.456Z,2.04
2022-11-05T21:08:22.645Z,2.01
2022-11-05T21:10:51.419Z,1.97
2022-11-05T21:13:17.812Z,1.96
2022-11-05T21:15:55.353Z,1.93
2022-11-05T21:18:23.837Z,1.88
2022-11-05T21:20:50.635Z,1.88
2022-11-05T21:23:17.404Z,1.87
2022-11-05T21:25:44.368Z,1.90
2022-11-05T21:28:12.144Z,1.89
2022-11-05T21:30:45.601Z,1.87
2022-11-05T21:33:13.176Z,1.84
2022-11-05T21:35:41.254Z,1.80
2022-11-05T21:38:07.705Z,1.78
2022-11-05T21:40:33.897Z,1.75
2022-11-05T21:43:00.032Z,1.71
2022-11-05T21:45:26.255Z,1.70
2022-11-05T21:47:52.374Z,1.67
2022-11-05T21:50:21.962Z,1.65
2022-11-05T21:53:06.751Z,1.68
2022-11-05T21:55:51.377Z,1.68
2022-11-05T21:58:36.488Z,1.66
2022-11-05T22:01:03.428Z,1.63
2022-11-05T22:03:29.538Z,1.60
2022-11-05T22:05:57.214Z,1.57
2022-11-05T22:08:23.325Z,1.56
2022-11-05T22:10:49.482Z,1.54
2022-11-05T22:13:15.599Z,1.52
2022-11-05T22:15:41.717Z,1.50
2022-11-05T22:18:07.852Z,1.48
2022-11-05T22:20:33.972Z,1.46
2022-11-05T22:23:00.094Z,1.44
2022-11-05T22:25:26.220Z,1.40
2022-11-05T22:27:52.320Z,1.38
2022-11-05T22:30:18.431Z,1.34
2022-11-05T22:32:46.212Z,1.30
2022-11-05T22:35:12.415Z,1.29
2022-11-05T22:37:38.714Z,1.27
2022-11-05T22:40:05.257Z,1.26
2022-11-05T22:42:31.502Z,1.25
2022-11-05T22:44:59.001Z,1.23
2022-11-05T22:47:25.132Z,1.23
2022-11-05T22:49:51.251Z,1.19
2022-11-05T22:52:17.351Z,1.17
2022-11-05T22:54:43.493Z,1.14
2022-11-05T22:57:09.593Z,1.16
2022-11-05T22:59:35.722Z,1.13
2022-11-05T23:02:06.583Z,1.09
2022-11-05T23:04:35.488Z,1.06
2022-11-05T23:07:24.620Z,1.06
2022-11-05T23:10:12.227Z,1.04
2022-11-05T23:12:38.474Z,1.05
2022-11-05T23:15:07.569Z,1.06
2022-11-05T23:17:52.559Z,1.08
2022-11-05T23:20:41.949Z,1.12
2022-11-05T23:23:30.944Z,1.13
2022-11-05T23:25:58.345Z,1.17
2022-11-05T23:28:24.759Z,1.17
2022-11-05T23:31:09.584Z,1.15
2022-11-05T23:33:36.107Z,1.11
2022-11-05T23:36:21.293Z,1.08
2022-11-05T23:38:47.504Z,1.06
2022-11-05T23:41:32.297Z,1.05
2022-11-05T23:44:16.968Z,1.05
2022-11-05T23:47:01.859Z,1.06
2022-11-05T23:49:28.022Z,1.06
2022-11-05T23:51:54.147Z,1.09
2022-11-05T23:54:20.373Z,1.10
2022-11-05T23:56:46.476Z,1.04
2022-11-05T23:59:12.614Z,1.00
